createdAt,value
2022-11-24T00:01:15.658Z,5.96
2022-11-24T00:03:44.073Z,6.11
2022-11-24T00:06:12.610Z,6.27
2022-11-24T00:08:40.686Z,6.03
2022-11-24T00:11:10.095Z,5.99
2022-11-24T00:13:39.003Z,5.92
2022-11-24T00:16:14.726Z,5.99
2022-11-24T00:18:42.864Z,6.11
2022-11-24T00:21:10.061Z,6.03
2022-11-24T00:23:37.267Z,6.01
2022-11-24T00:26:10.703Z,5.96
2022-11-24T00:28:38.244Z,6.00
2022-11-24T00:31:16.978Z,6.05
2022-11-24T00:33:44.130Z,5.88
2022-11-24T00:36:10.492Z,5.95
2022-11-24T00:38:36.925Z,5.84
2022-11-24T00:41:03.436Z,5.80
2022-11-24T00:43:29.798Z,5.78
2022-11-24T00:45:56.252Z,5.72
2022-11-24T00:48:22.862Z,5.75
2022-11-24T00:51:03.624Z,5.68
2022-11-24T00:53:30.390Z,5.53
2022-11-24T00:55:56.852Z,5.69
2022-11-24T00:58:24.951Z,5.64
2022-11-24T01:00:52.102Z,5.47
2022-11-24T01:03:20.647Z,5.60
2022-11-24T01:05:47.277Z,5.65
2022-11-24T01:08:13.779Z,5.46
2022-11-24T01:10:40.190Z,5.45
2022-11-24T01:13:06.599Z,5.48
2022-11-24T01:15:36.168Z,5.53
2022-11-24T01:18:04.016Z,5.40
2022-11-24T01:20:30.767Z,5.39
2022-11-24T01:22:57.165Z,5.38
2022-11-24T01:25:23.589Z,5.42
2022-11-24T01:27:49.988Z,5.55
2022-11-24T01:30:16.560Z,5.52
2022-11-24T01:32:42.899Z,5.65
2022-11-24T01:35:09.487Z,5.57
2022-11-24T01:37:35.961Z,5.57
2022-11-24T01:40:02.414Z,5.46
2022-11-24T01:42:39.784Z,5.41
2022-11-24T01:45:30.978Z,5.40
2022-11-24T01:47:58.035Z,5.32
2022-11-24T01:50:24.910Z,5.35
2022-11-24T01:52:56.650Z,5.31
2022-11-24T01:55:28.473Z,5.46
2022-11-24T01:58:13.062Z,5.43
2022-11-24T02:00:42.703Z,5.32
2022-11-24T02:03:10.383Z,5.38
2022-11-24T02:06:02.295Z,5.41
2022-11-24T02:08:40.846Z,5.80
2022-11-24T02:11:07.230Z,5.90
2022-11-24T02:13:36.752Z,5.76
2022-11-24T02:16:05.062Z,5.59
2022-11-24T02:18:31.494Z,5.55
2022-11-24T02:20:59.371Z,5.72
2022-11-24T02:24:01.147Z,5.44
2022-11-24T02:27:00.028Z,5.41
2022-11-24T02:29:26.462Z,5.54
2022-11-24T02:31:59.182Z,5.54
2022-11-24T02:34:25.551Z,5.56
2022-11-24T02:36:51.918Z,5.49
2022-11-24T02:39:18.449Z,5.64
2022-11-24T02:41:52.128Z,5.73
2022-11-24T02:44:21.930Z,5.77
2022-11-24T02:46:48.454Z,5.42
2022-11-24T02:49:16.116Z,5.50
2022-11-24T02:51:42.530Z,5.52
2022-11-24T02:54:08.914Z,5.51
2022-11-24T02:56:35.331Z,5.58
2022-11-24T02:59:01.689Z,5.74
2022-11-24T03:01:28.158Z,5.87
2022-11-24T03:03:54.548Z,5.80
2022-11-24T03:06:20.968Z,5.73
2022-11-24T03:08:47.337Z,5.79
2022-11-24T03:11:13.683Z,5.76
2022-11-24T03:13:40.108Z,5.78
2022-11-24T03:16:10.249Z,5.78
2022-11-24T03:18:36.687Z,5.81
2022-11-24T03:21:03.175Z,5.81
2022-11-24T03:23:29.523Z,6.02
2022-11-24T03:26:05.913Z,6.03
2022-11-24T03:28:32.332Z,6.01
2022-11-24T03:30:58.842Z,6.06
2022-11-24T03:33:25.248Z,6.04
2022-11-24T03:35:51.612Z,6.06
2022-11-24T03:38:17.989Z,6.11
2022-11-24T03:40:44.351Z,6.15
2022-11-24T03:43:10.721Z,6.04
2022-11-24T03:45:52.381Z,6.01
2022-11-24T03:48:21.143Z,6.09
2022-11-24T03:50:56.127Z,5.95
2022-11-24T03:53:23.663Z,6.08
2022-11-24T03:55:50.071Z,6.23
2022-11-24T03:58:16.536Z,6.01
2022-11-24T04:00:42.926Z,5.83
2022-11-24T04:03:09.455Z,5.89
2022-11-24T04:05:36.401Z,6.05
2022-11-24T04:08:05.206Z,5.95
2022-11-24T04:10:33.308Z,5.98
2022-11-24T04:12:59.719Z,6.01
2022-11-24T04:15:26.055Z,6.01
2022-11-24T04:17:54.898Z,6.13
2022-11-24T04:20:21.410Z,6.24
2022-11-24T04:22:50.600Z,6.28
2022-11-24T04:25:17.393Z,6.06
2022-11-24T04:27:44.088Z,6.06
2022-11-24T04:30:10.618Z,6.10
2022-11-24T04:32:37.050Z,5.90
2022-11-24T04:35:04.395Z,5.85
2022-11-24T04:37:30.850Z,6.01
2022-11-24T04:39:57.223Z,6.06
2022-11-24T04:42:23.583Z,5.91
2022-11-24T04:44:50.172Z,5.87
2022-11-24T04:47:24.686Z,5.81
2022-11-24T04:49:51.548Z,5.60
2022-11-24T04:52:19.777Z,5.83
2022-11-24T04:54:47.046Z,5.72
2022-11-24T04:57:18.254Z,5.62
2022-11-24T04:59:44.699Z,5.67
2022-11-24T05:02:11.371Z,5.97
2022-11-24T05:04:38.241Z,5.70
2022-11-24T05:07:05.521Z,5.81
2022-11-24T05:09:48.177Z,5.56
2022-11-24T05:12:18.199Z,5.70
2022-11-24T05:14:44.551Z,5.78
2022-11-24T05:17:10.997Z,5.58
2022-11-24T05:19:37.356Z,5.53
2022-11-24T05:22:03.808Z,5.71
2022-11-24T05:24:30.273Z,5.85
2022-11-24T05:26:56.677Z,5.90
2022-11-24T05:29:23.016Z,5.70
2022-11-24T05:31:49.507Z,5.66
2022-11-24T05:34:15.874Z,5.69
2022-11-24T05:36:54.402Z,5.86
2022-11-24T05:39:21.163Z,5.93
2022-11-24T05:41:47.557Z,5.89
2022-11-24T05:44:13.922Z,5.88
2022-11-24T05:46:40.369Z,5.77
2022-11-24T05:49:06.780Z,5.77
2022-11-24T05:51:33.414Z,5.72
2022-11-24T05:53:59.782Z,5.62
2022-11-24T05:56:26.131Z,5.74
2022-11-24T05:58:52.564Z,5.69
2022-11-24T06:01:18.935Z,5.69
2022-11-24T06:03:45.326Z,5.85
2022-11-24T06:06:11.687Z,5.89
2022-11-24T06:08:38.089Z,5.79
2022-11-24T06:11:19.426Z,5.63
2022-11-24T06:13:48.432Z,5.65
2022-11-24T06:16:15.419Z,5.73
2022-11-24T06:18:42.073Z,5.71
2022-11-24T06:21:11.229Z,5.78
2022-11-24T06:23:38.532Z,5.80
2022-11-24T06:26:05.043Z,5.73
2022-11-24T06:28:31.519Z,5.66
2022-11-24T06:31:05.096Z,5.51
2022-11-24T06:33:36.096Z,5.70
2022-11-24T06:36:05.094Z,5.65
2022-11-24T06:38:31.807Z,5.44
2022-11-24T06:41:02.547Z,5.61
2022-11-24T06:43:30.098Z,5.60
2022-11-24T06:45:57.352Z,5.62
2022-11-24T06:48:24.409Z,5.55
2022-11-24T06:50:51.083Z,5.66
2022-11-24T06:53:17.662Z,5.62
2022-11-24T06:55:45.020Z,5.61
2022-11-24T06:58:11.479Z,5.58
2022-11-24T07:00:38.736Z,5.55
2022-11-24T07:03:05.290Z,5.64
2022-11-24T07:05:31.668Z,5.70
2022-11-24T07:08:01.599Z,5.74
2022-11-24T07:10:28.036Z,5.66
2022-11-24T07:12:54.413Z,5.52
2022-11-24T07:15:20.803Z,5.53
2022-11-24T07:17:47.168Z,5.49
2022-11-24T07:20:13.552Z,5.67
2022-11-24T07:22:39.917Z,5.68
2022-11-24T07:25:09.537Z,5.47
2022-11-24T07:27:36.389Z,5.52
2022-11-24T07:30:03.594Z,5.80
2022-11-24T07:32:30.019Z,5.81
2022-11-24T07:34:56.404Z,5.98
2022-11-24T07:37:25.590Z,5.81
2022-11-24T07:39:56.084Z,5.90
2022-11-24T07:42:22.427Z,5.78
2022-11-24T07:44:48.827Z,5.93
2022-11-24T07:47:15.213Z,5.83
2022-11-24T07:49:41.591Z,5.91
2022-11-24T07:52:08.179Z,5.83
2022-11-24T07:54:34.822Z,5.74
2022-11-24T07:57:01.396Z,5.76
2022-11-24T07:59:27.736Z,5.69
2022-11-24T08:01:54.141Z,5.78
2022-11-24T08:04:20.600Z,5.74
2022-11-24T08:06:47.644Z,5.96
2022-11-24T08:09:14.206Z,6.13
2022-11-24T08:11:40.540Z,6.25
2022-11-24T08:14:06.912Z,6.09
2022-11-24T08:16:33.366Z,6.23
2022-11-24T08:18:59.799Z,6.18
2022-11-24T08:21:26.300Z,6.29
2022-11-24T08:23:57.278Z,6.29
2022-11-24T08:26:24.989Z,6.45
2022-11-24T08:28:58.765Z,6.31
2022-11-24T08:31:32.385Z,6.32
2022-11-24T08:33:59.567Z,6.22
2022-11-24T08:36:25.966Z,6.48
2022-11-24T08:38:57.169Z,6.43
2022-11-24T08:41:24.649Z,6.32
2022-11-24T08:43:51.465Z,6.52
2022-11-24T08:46:19.101Z,6.42
2022-11-24T08:48:53.025Z,6.57
2022-11-24T08:51:25.045Z,6.51
2022-11-24T08:53:55.748Z,6.66
2022-11-24T08:56:22.407Z,6.69
2022-11-24T08:58:48.874Z,6.80
2022-11-24T09:01:16.997Z,6.71
2022-11-24T09:03:50.404Z,6.84
2022-11-24T09:06:23.495Z,6.92
2022-11-24T09:08:50.159Z,6.87
2022-11-24T09:11:17.176Z,7.03
2022-11-24T09:13:43.867Z,7.12
2022-11-24T09:16:18.221Z,7.10
2022-11-24T09:18:44.718Z,7.08
2022-11-24T09:21:16.636Z,7.19
2022-11-24T09:23:43.940Z,7.27
2022-11-24T09:26:14.033Z,7.30
2022-11-24T09:28:41.276Z,7.45
2022-11-24T09:31:10.739Z,7.50
2022-11-24T09:33:38.311Z,7.59
2022-11-24T09:36:05.774Z,7.62
2022-11-24T09:38:32.292Z,7.48
2022-11-24T09:41:17.526Z,7.80
2022-11-24T09:43:58.648Z,7.88
2022-11-24T09:46:35.246Z,7.98
2022-11-24T09:49:04.536Z,8.14
2022-11-24T09:51:33.584Z,8.43
2022-11-24T09:54:06.008Z,8.58
2022-11-24T09:56:35.023Z,8.43
2022-11-24T09:59:14.570Z,8.51
2022-11-24T10:01:42.829Z,8.48
2022-11-24T10:04:22.439Z,8.65
2022-11-24T10:07:02.663Z,8.69
2022-11-24T10:09:50.086Z,8.61
2022-11-24T10:12:39.099Z,8.68
2022-11-24T10:15:25.333Z,8.63
2022-11-24T10:17:57.727Z,8.73
2022-11-24T10:20:36.220Z,8.67
2022-11-24T10:23:27.429Z,8.66
2022-11-24T10:25:57.527Z,8.70
2022-11-24T10:28:32.213Z,8.70
2022-11-24T10:31:29.955Z,8.69
2022-11-24T10:34:03.316Z,8.72
2022-11-24T10:36:43.685Z,8.85
2022-11-24T10:39:35.753Z,8.90
2022-11-24T10:42:10.108Z,8.93
2022-11-24T10:44:36.583Z,9.01
2022-11-24T10:47:03.589Z,9.04
2022-11-24T10:49:33.595Z,9.03
2022-11-24T10:52:16.475Z,9.04
2022-11-24T10:54:55.995Z,9.18
2022-11-24T10:57:48.850Z,9.24
2022-11-24T11:00:18.185Z,9.19
2022-11-24T11:02:45.981Z,9.21
2022-11-24T11:05:27.580Z,9.24
2022-11-24T11:08:16.050Z,9.28
2022-11-24T11:10:44.031Z,9.27
2022-11-24T11:13:30.340Z,9.29
2022-11-24T11:15:58.659Z,9.31
2022-11-24T11:18:31.806Z,9.35
2022-11-24T11:21:04.161Z,9.47
2022-11-24T11:23:36.146Z,9.44
2022-11-24T11:26:21.690Z,9.47
2022-11-24T11:31:15.288Z,9.56
2022-11-24T11:34:44.158Z,9.74
2022-11-24T11:37:14.415Z,9.81
2022-11-24T11:40:16.071Z,9.87
2022-11-24T11:43:02.511Z,9.78
2022-11-24T11:45:36.440Z,9.78
2022-11-24T11:48:03.132Z,9.80
2022-11-24T11:51:14.780Z,9.91
2022-11-24T11:53:46.358Z,9.85
2022-11-24T11:56:24.839Z,9.85
2022-11-24T11:59:00.299Z,9.94
2022-11-24T12:01:51.591Z,10.00
2022-11-24T12:04:20.913Z,9.98
2022-11-24T12:06:53.294Z,10.00
2022-11-24T12:09:28.971Z,9.99
2022-11-24T12:12:21.583Z,10.24
2022-11-24T12:14:51.129Z,10.14
2022-11-24T12:18:05.954Z,10.14
2022-11-24T12:20:46.403Z,10.31
2022-11-24T12:23:18.861Z,10.31
2022-11-24T12:25:58.423Z,10.27
2022-11-24T12:28:35.515Z,10.28
2022-11-24T12:31:05.749Z,10.23
2022-11-24T12:34:22.018Z,10.24
2022-11-24T12:37:01.391Z,10.34
2022-11-24T12:39:51.919Z,10.25
2022-11-24T12:42:50.386Z,10.25
2022-11-24T12:45:22.601Z,10.24
2022-11-24T12:48:12.194Z,10.57
2022-11-24T12:50:40.800Z,10.49
2022-11-24T12:53:22.013Z,10.46
2022-11-24T12:55:48.634Z,10.45
2022-11-24T12:58:36.156Z,10.48
2022-11-24T13:01:16.703Z,10.57
2022-11-24T13:03:58.688Z,10.76
2022-11-24T13:06:33.685Z,10.74
2022-11-24T13:09:08.120Z,10.72
2022-11-24T13:11:46.139Z,10.64
2022-11-24T13:14:22.567Z,10.56
2022-11-24T13:19:48.177Z,10.53
2022-11-24T13:22:18.736Z,10.52
2022-11-24T13:24:45.297Z,10.63
2022-11-24T13:27:19.656Z,10.55
2022-11-24T13:29:48.082Z,10.48
2022-11-24T13:32:14.479Z,10.49
2022-11-24T13:34:41.070Z,10.50
2022-11-24T13:37:31.652Z,10.52
2022-11-24T13:40:22.716Z,10.52
2022-11-24T13:43:00.283Z,10.45
2022-11-24T13:45:39.599Z,10.48
2022-11-24T13:48:22.554Z,10.46
2022-11-24T13:50:53.974Z,10.44
2022-11-24T13:53:33.386Z,10.42
2022-11-24T13:56:02.861Z,10.42
2022-11-24T13:58:44.369Z,10.45
2022-11-24T14:01:28.337Z,10.42
2022-11-24T14:04:30.988Z,10.44
2022-11-24T14:07:07.900Z,10.45
2022-11-24T14:09:44.710Z,10.44
2022-11-24T14:12:15.558Z,10.44
2022-11-24T14:14:44.330Z,10.41
2022-11-24T14:17:14.523Z,10.41
2022-11-24T14:19:42.765Z,10.37
2022-11-24T14:22:18.735Z,10.32
2022-11-24T14:24:50.986Z,10.28
2022-11-24T14:27:20.045Z,10.21
2022-11-24T14:29:58.219Z,10.21
2022-11-24T14:32:24.749Z,10.21
2022-11-24T14:34:52.152Z,10.12
2022-11-24T14:37:21.598Z,10.07
2022-11-24T14:39:48.039Z,10.05
2022-11-24T14:42:17.295Z,10.05
2022-11-24T14:44:49.051Z,10.03
2022-11-24T14:47:31.292Z,10.02
2022-11-24T14:50:23.908Z,9.99
2022-11-24T14:52:55.809Z,9.93
2022-11-24T14:55:31.243Z,9.90
2022-11-24T14:57:58.904Z,9.84
2022-11-24T15:00:28.611Z,9.85
2022-11-24T15:03:13.521Z,9.78
2022-11-24T15:05:58.356Z,9.73
2022-11-24T15:08:27.400Z,9.69
2022-11-24T15:11:00.387Z,9.58
2022-11-24T15:13:28.179Z,9.51
2022-11-24T15:16:02.938Z,9.47
2022-11-24T15:18:35.928Z,9.39
2022-11-24T15:21:03.018Z,9.10
2022-11-24T15:23:33.804Z,9.11
2022-11-24T15:26:03.060Z,9.14
2022-11-24T15:28:30.821Z,8.84
2022-11-24T15:31:06.470Z,8.85
2022-11-24T15:33:33.178Z,8.86
2022-11-24T15:35:59.807Z,8.84
2022-11-24T15:38:26.309Z,8.69
2022-11-24T15:40:55.086Z,8.78
2022-11-24T15:43:31.802Z,8.75
2022-11-24T15:45:58.986Z,8.69
2022-11-24T15:48:25.591Z,8.53
2022-11-24T15:50:53.245Z,8.32
2022-11-24T15:53:34.170Z,8.30
2022-11-24T15:56:02.514Z,8.20
2022-11-24T15:58:28.871Z,8.28
2022-11-24T16:00:55.337Z,8.37
2022-11-24T16:06:15.869Z,8.25
2022-11-24T16:08:46.020Z,8.21
2022-11-24T16:11:12.519Z,8.12
2022-11-24T16:13:39.010Z,8.10
2022-11-24T16:16:05.858Z,8.12
2022-11-24T16:18:32.283Z,8.09
2022-11-24T16:20:58.742Z,8.03
2022-11-24T16:23:25.161Z,7.92
2022-11-24T16:25:51.839Z,7.81
2022-11-24T16:28:18.402Z,7.82
2022-11-24T16:30:49.399Z,7.87
2022-11-24T16:33:16.024Z,7.85
2022-11-24T16:35:42.452Z,7.84
2022-11-24T16:38:17.877Z,7.79
2022-11-24T16:40:44.605Z,7.82
2022-11-24T16:43:10.997Z,7.73
2022-11-24T16:45:40.813Z,7.77
2022-11-24T16:48:10.227Z,7.61
2022-11-24T16:50:37.547Z,7.59
2022-11-24T16:53:03.917Z,7.63
2022-11-24T16:55:30.252Z,7.59
2022-11-24T16:57:56.609Z,7.62
2022-11-24T17:00:23.231Z,7.59
2022-11-24T17:02:49.688Z,7.55
2022-11-24T17:05:16.424Z,7.55
2022-11-24T17:07:42.892Z,7.51
2022-11-24T17:10:09.618Z,7.38
2022-11-24T17:12:36.665Z,7.36
2022-11-24T17:15:30.888Z,7.42
2022-11-24T17:18:22.391Z,7.34
2022-11-24T17:20:36.837Z,7.37
2022-11-24T17:23:03.214Z,7.49
2022-11-24T17:25:29.571Z,7.44
2022-11-24T17:27:55.935Z,7.50
2022-11-24T17:30:22.288Z,7.54
2022-11-24T17:32:51.248Z,7.48
2022-11-24T17:35:21.616Z,7.35
2022-11-24T17:37:47.973Z,7.17
2022-11-24T17:40:34.292Z,7.32
2022-11-24T17:43:01.085Z,7.33
2022-11-24T17:45:28.756Z,7.32
2022-11-24T17:47:56.117Z,7.37
2022-11-24T17:50:26.056Z,7.31
2022-11-24T17:52:53.094Z,7.23
2022-11-24T17:55:19.515Z,7.30
2022-11-24T17:57:45.914Z,7.22
2022-11-24T18:00:12.967Z,7.40
2022-11-24T18:02:39.406Z,7.25
2022-11-24T18:05:06.040Z,7.23
2022-11-24T18:07:34.712Z,7.36
2022-11-24T18:10:01.139Z,7.21
2022-11-24T18:12:27.510Z,7.19
2022-11-24T18:14:53.939Z,7.38
2022-11-24T18:17:20.342Z,7.29
2022-11-24T18:19:46.732Z,7.23
2022-11-24T18:22:13.094Z,7.13
2022-11-24T18:24:39.790Z,7.15
2022-11-24T18:27:06.435Z,7.14
2022-11-24T18:29:32.850Z,7.26
2022-11-24T18:31:59.321Z,7.11
2022-11-24T18:34:25.798Z,7.13
2022-11-24T18:36:52.645Z,6.98
2022-11-24T18:39:19.273Z,7.11
2022-11-24T18:41:46.666Z,7.20
2022-11-24T18:44:13.139Z,7.23
2022-11-24T18:46:39.517Z,7.14
2022-11-24T18:49:07.108Z,7.24
2022-11-24T18:51:33.875Z,7.25
2022-11-24T18:54:02.052Z,7.28
2022-11-24T18:56:29.118Z,7.26
2022-11-24T18:58:56.457Z,7.26
2022-11-24T19:01:25.204Z,7.13
2022-11-24T19:03:54.553Z,7.20
2022-11-24T19:06:26.847Z,6.98
2022-11-24T19:08:54.918Z,7.01
2022-11-24T19:11:29.172Z,7.10
2022-11-24T19:13:56.649Z,7.17
2022-11-24T19:16:24.036Z,7.12
2022-11-24T19:18:54.264Z,6.99
2022-11-24T19:21:21.421Z,6.98
2022-11-24T19:23:47.857Z,7.09
2022-11-24T19:26:14.260Z,7.04
2022-11-24T19:28:40.735Z,7.19
2022-11-24T19:31:10.695Z,7.20
2022-11-24T19:33:37.332Z,7.03
2022-11-24T19:36:07.194Z,7.08
2022-11-24T19:38:35.064Z,7.11
2022-11-24T19:41:02.278Z,7.14
2022-11-24T19:43:28.919Z,7.22
2022-11-24T19:46:00.719Z,7.15
2022-11-24T19:48:30.870Z,7.15
2022-11-24T19:51:01.467Z,7.14
2022-11-24T19:53:28.459Z,7.13
2022-11-24T19:55:54.892Z,7.34
2022-11-24T19:58:21.344Z,7.18
2022-11-24T20:00:47.753Z,7.08
2022-11-24T20:03:14.469Z,7.09
2022-11-24T20:05:40.888Z,7.05
2022-11-24T20:08:07.283Z,7.23
2022-11-24T20:10:33.653Z,7.17
2022-11-24T20:13:00.077Z,7.08
2022-11-24T20:15:26.424Z,7.09
2022-11-24T20:17:52.812Z,7.04
2022-11-24T20:20:19.260Z,7.17
2022-11-24T20:22:45.645Z,7.11
2022-11-24T20:25:12.008Z,7.16
2022-11-24T20:27:38.403Z,7.16
2022-11-24T20:30:05.578Z,7.06
2022-11-24T20:32:31.967Z,6.94
2022-11-24T20:34:58.358Z,6.99
2022-11-24T20:37:25.818Z,7.00
2022-11-24T20:39:52.292Z,7.05
2022-11-24T20:42:18.690Z,6.95
2022-11-24T20:44:45.090Z,6.94
2022-11-24T20:47:11.459Z,7.11
2022-11-24T20:49:37.858Z,7.17
2022-11-24T20:52:04.545Z,7.06
2022-11-24T20:54:31.042Z,6.97
2022-11-24T20:56:57.376Z,6.92
2022-11-24T20:59:25.050Z,7.02
2022-11-24T21:01:55.123Z,7.08
2022-11-24T21:04:25.447Z,6.90
2022-11-24T21:06:52.135Z,7.00
2022-11-24T21:09:19.001Z,7.04
2022-11-24T21:11:45.865Z,7.14
2022-11-24T21:14:12.855Z,7.06
2022-11-24T21:16:41.371Z,7.06
2022-11-24T21:19:11.668Z,7.03
2022-11-24T21:21:39.171Z,7.15
2022-11-24T21:24:13.898Z,7.21
2022-11-24T21:26:41.954Z,7.26
2022-11-24T21:29:08.520Z,7.06
2022-11-24T21:31:37.047Z,6.98
2022-11-24T21:34:05.041Z,7.15
2022-11-24T21:36:34.002Z,7.11
2022-11-24T21:39:02.008Z,7.02
2022-11-24T21:41:29.416Z,7.19
2022-11-24T21:43:55.968Z,7.08
2022-11-24T21:46:22.980Z,7.04
2022-11-24T21:48:49.644Z,7.19
2022-11-24T21:51:19.255Z,7.18
2022-11-24T21:53:46.582Z,7.20
2022-11-24T21:56:16.860Z,7.16
2022-11-24T21:58:48.125Z,6.98
2022-11-24T22:01:16.014Z,7.04
2022-11-24T22:03:42.841Z,7.15
2022-11-24T22:06:09.403Z,7.07
2022-11-24T22:08:36.941Z,7.11
2022-11-24T22:11:12.125Z,7.16
2022-11-24T22:13:38.922Z,7.23
2022-11-24T22:16:17.314Z,6.98
2022-11-24T22:18:44.734Z,7.03
2022-11-24T22:21:18.979Z,7.09
2022-11-24T22:23:45.517Z,7.05
2022-11-24T22:26:14.322Z,6.92
2022-11-24T22:28:41.087Z,6.79
2022-11-24T22:31:10.635Z,6.89
2022-11-24T22:33:37.147Z,6.98
2022-11-24T22:36:04.140Z,7.03
2022-11-24T22:38:31.580Z,6.93
2022-11-24T22:41:05.998Z,6.90
2022-11-24T22:43:33.755Z,7.05
2022-11-24T22:46:27.140Z,7.10
2022-11-24T22:48:54.801Z,7.09
2022-11-24T22:51:26.861Z,6.97
2022-11-24T22:53:55.598Z,7.00
2022-11-24T22:56:22.442Z,7.00
2022-11-24T22:58:48.983Z,6.95
2022-11-24T23:01:18.186Z,6.90
2022-11-24T23:03:45.298Z,7.06
2022-11-24T23:06:14.470Z,6.96
2022-11-24T23:08:41.234Z,7.10
2022-11-24T23:11:29.735Z,7.23
2022-11-24T23:14:00.330Z,7.09
2022-11-24T23:16:26.986Z,6.90
2022-11-24T23:18:54.211Z,6.85
2022-11-24T23:21:29.019Z,6.86
2022-11-24T23:23:56.266Z,6.82
2022-11-24T23:26:31.540Z,6.93
2022-11-24T23:28:58.077Z,7.10
2022-11-24T23:31:28.543Z,7.12
2022-11-24T23:33:56.957Z,7.16
2022-11-24T23:36:23.379Z,6.98
2022-11-24T23:38:49.841Z,7.01
2022-11-24T23:41:19.054Z,7.06
2022-11-24T23:43:45.549Z,7.00
2022-11-24T23:46:17.943Z,6.95
2022-11-24T23:48:44.512Z,6.92
2022-11-24T23:51:24.882Z,6.88
2022-11-24T23:53:52.098Z,6.95
2022-11-24T23:56:21.049Z,6.83
2022-11-24T23:58:47.566Z,6.91
